Terminal Aerodrome Forecast
Issued by NWS Northern Indiana

Home | Current Version | Previous Version | Text Only | Print | Product List | Glossary On
Versions: 1 2 3 4 5 6 7 8 9 10 11 12 13 14
000
FTUS43 KIWX 140500
TAFFWA
TAF
KFWA 140540Z 1406/1506 23005KT P6SM BKN120
     FM141800 25008KT P6SM VCSH BKN080
      TEMPO 1419/1421 5SM -TSRA BKN060CB
     FM142200 28012KT P6SM BKN060=

USA.gov is the U.S. government's official web portal to all federal, state and local government web resources and services.